Time;durP1;ratioP1;P1;durP2;ratioP2;P2;SDS_P1;SDS_P2;PMS_P1;PMS_P2;Temp;Humidity;BMP_temperature;BMP_pressure;BME280_temperature;BME280_humidity;BME280_pressure;Samples;Min_cycle;Max_cycle;Signal;HPM_P1;HPM_P2
2021/08/23 00:02:15;;;;;;;7.28;6.57;;;27.70;45.40;;;;;;4303397;61;21262;-25
2021/08/23 00:07:16;;;;;;;7.00;6.30;;;27.70;45.40;;;;;;4309344;61;21704;-27
2021/08/23 00:12:17;;;;;;;7.20;6.50;;;27.70;45.40;;;;;;4296414;65;21097;-29
2021/08/23 00:17:18;;;;;;;6.75;6.15;;;27.70;45.40;;;;;;4297050;60;21164;-26
2021/08/23 00:22:20;;;;;;;6.50;5.90;;;27.70;45.40;;;;;;4310902;60;21120;-30
2021/08/23 00:27:21;;;;;;;6.22;5.68;;;27.70;45.40;;;;;;4297037;61;21725;-30
2021/08/23 00:32:23;;;;;;;6.53;5.93;;;27.70;45.50;;;;;;4297354;61;21100;-29
2021/08/23 00:37:23;;;;;;;6.47;5.87;;;27.70;45.40;;;;;;4296154;60;21214;-31
2021/08/23 00:42:24;;;;;;;7.05;6.35;;;27.70;45.50;;;;;;4326166;61;21188;-29
2021/08/23 00:47:25;;;;;;;6.90;6.20;;;27.70;45.50;;;;;;4296359;61;21092;-25
2021/08/23 00:52:26;;;;;;;6.60;6.00;;;27.70;45.60;;;;;;4335103;61;21097;-27
2021/08/23 00:57:27;;;;;;;6.28;5.68;;;27.70;45.60;;;;;;4325547;60;21124;-31
2021/08/23 01:02:57;;;;;;;6.72;6.07;;;27.70;45.50;;;;;;4330276;61;21358;-28
2021/08/23 01:08:16;;;;;;;6.55;5.95;;;27.70;45.60;;;;;;4309223;60;21081;-20
2021/08/23 01:13:18;;;;;;;6.07;5.50;;;27.70;45.60;;;;;;4297013;60;21146;-27
2021/08/23 01:18:19;;;;;;;6.68;6.03;;;27.70;45.60;;;;;;4327555;60;21084;-27
2021/08/23 01:23:22;;;;;;;6.37;5.78;;;27.70;45.60;;;;;;4309955;61;21104;-26
2021/08/23 01:28:58;;;;;;;6.30;5.70;;;27.70;45.70;;;;;;4306082;60;21065;-26
2021/08/23 01:33:59;;;;;;;6.80;6.10;;;27.70;45.60;;;;;;4304845;60;21057;-29
2021/08/23 01:39:00;;;;;;;6.80;6.20;;;27.70;45.60;;;;;;4297208;60;21057;-27
2021/08/23 01:44:00;;;;;;;6.47;5.80;;;27.70;45.60;;;;;;4295744;61;21100;-29
2021/08/23 01:49:06;;;;;;;6.25;5.68;;;27.70;45.60;;;;;;4303974;61;21617;-31
2021/08/23 01:54:06;;;;;;;5.95;5.37;;;27.70;45.70;;;;;;4299314;60;21057;-30
2021/08/23 01:59:07;;;;;;;6.00;5.50;;;27.70;45.80;;;;;;4299743;61;21343;-25
2021/08/23 02:04:08;;;;;;;6.50;5.80;;;27.60;45.60;;;;;;4306034;61;21583;-25
2021/08/23 02:09:09;;;;;;;6.45;5.10;;;27.70;45.70;;;;;;4299060;60;21562;-28
2021/08/23 02:14:10;;;;;;;6.18;5.57;;;27.60;45.70;;;;;;4300533;61;21092;-27
2021/08/23 02:19:11;;;;;;;5.90;5.30;;;27.60;45.80;;;;;;4296350;65;21060;-30
2021/08/23 02:24:12;;;;;;;5.75;5.15;;;27.60;45.70;;;;;;4301639;60;21615;-27
2021/08/23 02:29:13;;;;;;;6.12;5.60;;;27.60;45.80;;;;;;4300442;60;21118;-24
2021/08/23 02:34:13;;;;;;;7.30;5.95;;;27.60;45.80;;;;;;4301546;61;21117;-25
2021/08/23 02:39:14;;;;;;;5.57;5.07;;;27.60;45.80;;;;;;4316599;61;21061;-25
2021/08/23 02:44:15;;;;;;;6.18;5.53;;;27.60;46.50;;;;;;4301885;61;21165;-27
2021/08/23 02:49:16;;;;;;;5.90;5.40;;;27.60;45.70;;;;;;4307028;61;21064;-30
2021/08/23 02:54:17;;;;;;;6.43;5.82;;;27.60;45.80;;;;;;4300714;60;21060;-25
2021/08/23 02:59:18;;;;;;;6.18;5.57;;;27.60;45.80;;;;;;4303303;61;22801;-25
2021/08/23 03:04:19;;;;;;;6.65;6.05;;;27.60;46.20;;;;;;4303654;61;21041;-26
2021/08/23 03:09:22;;;;;;;5.90;5.30;;;27.60;45.70;;;;;;4301027;61;21061;-32
2021/08/23 03:14:23;;;;;;;5.85;5.35;;;27.60;45.70;;;;;;4299885;61;21140;-25
2021/08/23 03:19:24;;;;;;;6.28;5.68;;;27.60;45.70;;;;;;4301265;61;21049;-26
2021/08/23 03:24:25;;;;;;;6.55;5.95;;;27.60;45.80;;;;;;4310986;61;21130;-27
2021/08/23 03:29:26;;;;;;;6.12;5.53;;;27.60;45.70;;;;;;4298050;60;21117;-25
2021/08/23 03:34:27;;;;;;;5.97;5.45;;;27.60;45.70;;;;;;4296202;65;21166;-28
2021/08/23 03:39:28;;;;;;;6.15;5.55;;;27.60;45.70;;;;;;4312960;61;21077;-29
2021/08/23 03:44:28;;;;;;;7.15;5.40;;;27.50;45.60;;;;;;4296956;61;21041;-29
2021/08/23 03:49:29;;;;;;;7.50;5.40;;;27.50;45.70;;;;;;4302797;61;21611;-29
2021/08/23 03:54:30;;;;;;;6.10;5.53;;;27.50;45.70;;;;;;4308824;61;21057;-25
2021/08/23 03:59:31;;;;;;;6.22;5.62;;;27.50;45.70;;;;;;4304592;61;21041;-28
2021/08/23 04:04:32;;;;;;;5.72;5.22;;;27.50;45.60;;;;;;4296045;65;22321;-28
2021/08/23 04:09:32;;;;;;;6.78;5.70;;;27.50;45.60;;;;;;4295494;64;21053;-23
2021/08/23 04:14:33;;;;;;;6.22;5.62;;;27.50;45.50;;;;;;4303935;61;21081;-29
2021/08/23 04:19:34;;;;;;;6.60;5.90;;;27.50;45.50;;;;;;4305926;61;21548;-27
2021/08/23 04:24:35;;;;;;;6.53;5.93;;;27.50;45.50;;;;;;4302093;61;21502;-27
2021/08/23 04:29:36;;;;;;;6.47;5.85;;;27.50;45.50;;;;;;4294948;61;21657;-30
2021/08/23 04:34:37;;;;;;;6.18;5.57;;;27.50;45.70;;;;;;4307192;61;21632;-29
2021/08/23 04:39:38;;;;;;;5.95;5.35;;;27.50;45.70;;;;;;4302422;61;21053;-28
2021/08/23 04:44:38;;;;;;;7.10;5.65;;;27.50;45.60;;;;;;4307191;61;21060;-26
2021/08/23 04:49:39;;;;;;;6.28;5.68;;;27.40;45.50;;;;;;4360841;61;21127;-27
2021/08/23 04:54:40;;;;;;;7.22;6.18;;;27.50;45.50;;;;;;4296133;65;21061;-30
2021/08/23 04:59:41;;;;;;;5.75;5.20;;;27.50;45.50;;;;;;4306728;61;21072;-27
2021/08/23 05:04:42;;;;;;;6.55;5.90;;;27.40;45.50;;;;;;4308578;61;21105;-30
2021/08/23 05:09:42;;;;;;;6.32;5.70;;;27.40;45.50;;;;;;4310287;61;21104;-29
2021/08/23 05:14:43;;;;;;;6.62;6.03;;;27.40;45.50;;;;;;4309748;61;21312;-30
2021/08/23 05:19:44;;;;;;;6.32;5.72;;;27.50;45.60;;;;;;4296645;65;21089;-30
2021/08/23 05:24:46;;;;;;;6.78;6.00;;;27.50;45.70;;;;;;4323702;61;21065;-19
2021/08/23 05:29:47;;;;;;;7.05;6.25;;;27.40;45.50;;;;;;4295380;62;21978;-30
2021/08/23 05:34:47;;;;;;;6.93;6.22;;;27.40;45.50;;;;;;4317122;61;21088;-31
2021/08/23 05:39:48;;;;;;;6.50;5.78;;;27.40;45.50;;;;;;4295593;65;22073;-30
2021/08/23 05:44:53;;;;;;;6.95;6.25;;;27.40;45.50;;;;;;4310654;60;21149;-30
2021/08/23 05:49:56;;;;;;;8.55;5.90;;;27.40;45.60;;;;;;4336147;60;21558;-33
2021/08/23 05:54:56;;;;;;;6.87;5.95;;;27.40;45.40;;;;;;4304259;60;21065;-30
2021/08/23 05:59:57;;;;;;;7.57;6.65;;;27.40;46.10;;;;;;4297873;61;21089;-30
2021/08/23 06:04:58;;;;;;;7.25;6.43;;;27.40;45.40;;;;;;4301034;61;21141;-30
2021/08/23 06:09:59;;;;;;;7.50;6.80;;;27.40;45.50;;;;;;4298589;60;21141;-30
2021/08/23 06:15:00;;;;;;;9.02;7.20;;;27.40;45.50;;;;;;4298859;61;21056;-28
2021/08/23 06:20:01;;;;;;;8.15;7.32;;;27.40;45.50;;;;;;4301028;61;21555;-27
2021/08/23 06:25:02;;;;;;;8.15;6.97;;;27.40;45.20;;;;;;4306189;61;21069;-29
2021/08/23 06:30:04;;;;;;;7.85;7.05;;;27.40;45.50;;;;;;4295058;60;21077;-27
2021/08/23 06:35:06;;;;;;;8.68;7.47;;;27.40;45.40;;;;;;4332538;60;21515;-29
2021/08/23 06:40:08;;;;;;;8.93;8.02;;;27.40;45.40;;;;;;4310930;60;21093;-31
2021/08/23 06:45:10;;;;;;;10.60;8.00;;;27.40;45.50;;;;;;4298005;60;21073;-31
2021/08/23 06:50:14;;;;;;;9.18;8.27;;;27.40;45.50;;;;;;4303996;60;21033;-24
2021/08/23 06:55:15;;;;;;;10.40;8.15;;;27.40;45.50;;;;;;4317305;61;21618;-22
2021/08/23 07:00:15;;;;;;;9.25;8.25;;;27.40;45.50;;;;;;4349092;61;21060;-27
2021/08/23 07:05:16;;;;;;;16.67;13.20;;;27.40;45.50;;;;;;4295217;65;21060;-26
2021/08/23 07:10:17;;;;;;;27.37;19.75;;;27.40;45.20;;;;;;4295988;64;21890;-28
2021/08/23 07:15:18;;;;;;;31.67;21.00;;;27.40;45.00;;;;;;4295731;65;22245;-28
2021/08/23 07:20:19;;;;;;;29.10;20.80;;;27.30;45.00;;;;;;4296332;65;21090;-28
2021/08/23 07:25:20;;;;;;;27.00;19.25;;;27.30;45.10;;;;;;4298015;61;21164;-30
2021/08/23 07:30:21;;;;;;;36.60;27.10;;;27.40;45.90;;;;;;4309690;61;21069;-29
2021/08/23 07:35:21;;;;;;;33.90;24.77;;;27.30;44.80;;;;;;4297266;61;21045;-30
2021/08/23 07:40:22;;;;;;;36.10;26.25;;;27.40;45.30;;;;;;4312001;61;21077;-28
2021/08/23 07:45:23;;;;;;;37.95;27.00;;;27.40;45.30;;;;;;4295748;61;21182;-27
2021/08/23 07:50:24;;;;;;;32.15;24.55;;;27.40;45.30;;;;;;4297667;60;21056;-30
2021/08/23 07:55:26;;;;;;;37.65;25.80;;;27.40;46.50;;;;;;4312995;60;21061;-25
2021/08/23 08:00:26;;;;;;;33.90;25.83;;;27.50;46.10;;;;;;4317252;60;21174;-29
2021/08/23 08:05:27;;;;;;;79.35;30.40;;;27.50;46.00;;;;;;4295935;61;21154;-27
2021/08/23 08:10:28;;;;;;;70.97;45.20;;;27.50;46.10;;;;;;4294438;65;21092;-25
2021/08/23 08:15:29;;;;;;;74.37;49.47;;;27.50;45.70;;;;;;4313626;61;21542;-28
2021/08/23 08:20:30;;;;;;;195.40;153.35;;;27.50;45.70;;;;;;4294907;64;21154;-25
2021/08/23 08:25:31;;;;;;;208.63;171.48;;;27.60;46.40;;;;;;4298460;61;21554;-27
2021/08/23 08:30:32;;;;;;;149.52;116.93;;;27.60;46.20;;;;;;4308564;61;21088;-28
2021/08/23 08:35:33;;;;;;;126.43;95.35;;;27.60;45.90;;;;;;4298426;61;21570;-27
2021/08/23 08:40:34;;;;;;;98.90;72.35;;;27.60;46.00;;;;;;4306258;61;21097;-27
2021/08/23 08:45:35;;;;;;;74.78;58.38;;;27.60;45.50;;;;;;4295148;61;21193;-27
2021/08/23 08:50:36;;;;;;;71.93;51.53;;;27.70;45.40;;;;;;4300506;61;21064;-28
2021/08/23 08:55:37;;;;;;;60.70;43.05;;;27.70;44.90;;;;;;4306300;60;21428;-28
2021/08/23 09:00:40;;;;;;;64.35;46.33;;;27.70;44.80;;;;;;4295566;61;21197;-27
2021/08/23 09:05:43;;;;;;;59.75;46.45;;;27.70;44.50;;;;;;4324749;60;21522;-26
2021/08/23 09:10:44;;;;;;;59.42;43.92;;;27.80;44.50;;;;;;4295833;61;21150;-31
2021/08/23 09:15:56;;;;;;;59.78;43.97;;;27.80;43.90;;;;;;4294881;65;21057;-29
2021/08/23 09:21:05;;;;;;;53.35;39.53;;;27.80;43.70;;;;;;4330082;60;21057;-27
2021/08/23 09:26:17;;;;;;;53.67;40.10;;;27.80;43.70;;;;;;4295660;60;21113;-29
2021/08/23 09:31:27;;;;;;;44.85;35.33;;;27.80;43.40;;;;;;4298530;60;21160;-26
2021/08/23 09:36:29;;;;;;;51.70;35.97;;;27.90;43.30;;;;;;4296730;61;21045;-26
2021/08/23 09:41:31;;;;;;;51.78;38.28;;;27.90;43.10;;;;;;4301595;60;21089;-26
2021/08/23 09:46:34;;;;;;;50.10;39.88;;;27.90;43.70;;;;;;4302078;60;21076;-23
2021/08/23 09:51:39;;;;;;;55.30;41.03;;;27.90;43.60;;;;;;4308603;60;21072;-25
2021/08/23 09:56:49;;;;;;;47.50;37.78;;;27.90;42.60;;;;;;4296862;60;21519;-29
2021/08/23 10:01:56;;;;;;;44.22;35.10;;;27.90;42.80;;;;;;4297921;60;21138;-28
2021/08/23 10:06:57;;;;;;;44.78;34.95;;;27.90;42.80;;;;;;4304167;60;21108;-30
2021/08/23 10:11:59;;;;;;;41.55;33.42;;;27.90;42.90;;;;;;4310681;61;21093;-31
2021/08/23 10:17:00;;;;;;;45.97;35.90;;;27.90;43.00;;;;;;4295373;64;21033;-27
2021/08/23 10:22:01;;;;;;;54.35;37.30;;;28.00;43.00;;;;;;4298095;60;21124;-29
2021/08/23 10:27:02;;;;;;;50.15;39.47;;;28.00;43.50;;;;;;4294224;65;21065;-28
2021/08/23 10:32:10;;;;;;;52.13;42.50;;;28.00;43.80;;;;;;4316490;60;21081;-26
2021/08/23 10:37:19;;;;;;;57.70;43.83;;;28.10;44.20;;;;;;4308604;60;21073;-29
2021/08/23 10:42:21;;;;;;;52.15;41.08;;;28.00;44.30;;;;;;4294077;65;21554;-26
2021/08/23 10:47:30;;;;;;;52.15;40.05;;;28.10;44.00;;;;;;4297465;61;21611;-29
2021/08/23 10:52:36;;;;;;;52.33;39.00;;;28.00;43.80;;;;;;4307348;60;22002;-23
2021/08/23 10:57:37;;;;;;;49.92;41.10;;;28.10;43.90;;;;;;4298353;60;21567;-28
2021/08/23 11:02:38;;;;;;;49.72;40.35;;;28.10;43.90;;;;;;4301204;61;21079;-29
2021/08/23 11:07:42;;;;;;;49.38;40.05;;;28.10;44.20;;;;;;4294875;65;21094;-28
2021/08/23 11:12:51;;;;;;;52.78;41.88;;;28.10;44.30;;;;;;4310572;60;21554;-32
2021/08/23 11:17:55;;;;;;;47.58;38.33;;;28.10;44.50;;;;;;4308389;60;21088;-26
2021/08/23 11:23:05;;;;;;;44.83;38.08;;;28.10;44.70;;;;;;4296532;60;21539;-26
2021/08/23 11:28:11;;;;;;;46.88;36.45;;;28.20;44.60;;;;;;4316583;60;21109;-22
2021/08/23 11:33:23;;;;;;;45.70;36.70;;;28.10;44.40;;;;;;4307684;60;21138;-27
2021/08/23 11:38:33;;;;;;;41.00;33.15;;;28.20;44.70;;;;;;4295444;65;21219;-22
2021/08/23 11:43:34;;;;;;;41.50;34.45;;;28.20;44.70;;;;;;4302161;60;21089;-29
2021/08/23 11:48:35;;;;;;;39.95;33.55;;;28.20;44.70;;;;;;4309810;60;21667;-35
2021/08/23 11:53:37;;;;;;;39.03;31.37;;;28.20;44.80;;;;;;4303040;61;21037;-30
2021/08/23 11:58:40;;;;;;;37.75;32.13;;;28.20;44.70;;;;;;4322597;61;21571;-29
2021/08/23 12:03:41;;;;;;;38.35;32.20;;;28.20;44.70;;;;;;4295537;60;21073;-29
2021/08/23 12:08:43;;;;;;;39.17;31.50;;;28.20;44.70;;;;;;4299515;60;21069;-27
2021/08/23 12:13:46;;;;;;;37.22;31.00;;;28.20;44.50;;;;;;4313775;61;21534;-28
2021/08/23 12:18:49;;;;;;;36.00;30.45;;;28.20;45.10;;;;;;4295179;64;21106;-30
2021/08/23 12:23:56;;;;;;;34.15;29.83;;;28.20;45.60;;;;;;4296201;60;21560;-28
2021/08/23 12:29:00;;;;;;;34.85;29.65;;;28.30;46.20;;;;;;4305876;60;21359;-28
2021/08/23 12:34:15;;;;;;;36.63;30.80;;;28.30;46.00;;;;;;4324098;60;21049;-24
2021/08/23 12:39:16;;;;;;;37.88;31.70;;;28.30;47.30;;;;;;4306102;60;21057;-27
2021/08/23 12:44:19;;;;;;;35.17;27.52;;;28.30;47.40;;;;;;4315898;60;21125;-27
2021/08/23 12:49:20;;;;;;;31.50;26.65;;;28.30;47.40;;;;;;4301315;60;21085;-26
2021/08/23 12:54:22;;;;;;;27.10;23.85;;;28.40;47.60;;;;;;4313019;60;21057;-27
2021/08/23 12:59:23;;;;;;;26.05;21.83;;;28.40;47.50;;;;;;4295190;60;21080;-24
2021/08/23 13:04:24;;;;;;;25.30;22.33;;;28.40;47.60;;;;;;4302524;60;21041;-27
2021/08/23 13:09:25;;;;;;;28.15;22.55;;;28.40;47.90;;;;;;4305243;61;21112;-25
2021/08/23 13:14:25;;;;;;;28.77;24.00;;;28.40;48.00;;;;;;4296138;61;21527;-26
2021/08/23 13:19:26;;;;;;;34.13;25.77;;;28.40;48.30;;;;;;4304021;61;21069;-31
2021/08/23 13:24:27;;;;;;;29.65;24.60;;;28.40;48.10;;;;;;4294806;65;21057;-29
2021/08/23 13:29:28;;;;;;;29.50;23.25;;;28.40;48.00;;;;;;4303333;61;21134;-29
2021/08/23 13:34:29;;;;;;;29.63;22.65;;;28.50;47.50;;;;;;4294999;65;21053;-30
2021/08/23 13:39:30;;;;;;;26.67;23.23;;;28.50;47.90;;;;;;4311959;61;21674;-27
2021/08/23 13:44:34;;;;;;;29.85;25.92;;;28.40;47.80;;;;;;4302586;60;21125;-23
2021/08/23 13:49:34;;;;;;;31.80;24.42;;;28.50;47.80;;;;;;4294799;65;21076;-27
2021/08/23 13:54:35;;;;;;;31.40;26.90;;;28.50;47.90;;;;;;4322644;61;21073;-28
2021/08/23 13:59:36;;;;;;;29.10;25.00;;;28.50;48.00;;;;;;4313635;61;21112;-28
2021/08/23 14:04:38;;;;;;;29.67;25.42;;;28.50;48.20;;;;;;4303386;61;21109;-25
2021/08/23 14:09:38;;;;;;;28.12;24.15;;;28.50;48.30;;;;;;4302512;61;21173;-29
2021/08/23 14:14:39;;;;;;;28.15;23.50;;;28.50;48.60;;;;;;4315369;61;21093;-28
2021/08/23 14:19:40;;;;;;;25.77;22.27;;;28.50;48.70;;;;;;4295283;61;21371;-28
2021/08/23 14:24:41;;;;;;;26.92;21.87;;;28.50;48.80;;;;;;4303081;61;21154;-29
2021/08/23 14:29:42;;;;;;;26.55;21.83;;;28.50;49.00;;;;;;4298626;61;21096;-24
2021/08/23 14:34:43;;;;;;;32.17;27.40;;;28.50;49.00;;;;;;4304519;61;21543;-27
2021/08/23 14:39:43;;;;;;;32.83;28.52;;;28.50;49.00;;;;;;4304163;61;21089;-25
2021/08/23 14:44:44;;;;;;;34.83;28.38;;;28.50;49.10;;;;;;4294844;65;21061;-28
2021/08/23 14:49:48;;;;;;;39.13;28.70;;;28.50;49.20;;;;;;4317643;61;21606;-28
2021/08/23 14:54:49;;;;;;;33.17;27.67;;;28.50;49.20;;;;;;4295127;60;21531;-26
2021/08/23 14:59:49;;;;;;;32.78;23.17;;;28.50;49.40;;;;;;4295349;64;21102;-31
2021/08/23 15:04:50;;;;;;;31.05;24.67;;;28.50;49.50;;;;;;4296480;61;21064;-32
2021/08/23 15:09:51;;;;;;;32.10;23.70;;;28.50;49.60;;;;;;4300503;61;21526;-31
2021/08/23 15:14:52;;;;;;;27.77;22.80;;;28.50;49.60;;;;;;4319658;61;22381;-32
2021/08/23 15:19:53;;;;;;;27.42;21.80;;;28.40;49.60;;;;;;4308096;61;21049;-32
2021/08/23 15:24:54;;;;;;;26.73;22.75;;;28.40;49.70;;;;;;4302204;61;21132;-30
2021/08/23 15:29:55;;;;;;;29.55;24.40;;;28.30;49.70;;;;;;4294589;61;21078;-33
2021/08/23 15:34:56;;;;;;;29.75;23.20;;;28.30;49.70;;;;;;4310733;61;21113;-24
2021/08/23 15:39:57;;;;;;;28.20;23.12;;;28.30;49.70;;;;;;4295493;65;21152;-32
2021/08/23 15:44:58;;;;;;;29.05;23.42;;;28.30;49.80;;;;;;4317021;61;21681;-33
2021/08/23 15:49:59;;;;;;;27.23;23.15;;;28.30;49.80;;;;;;4297584;61;21173;-32
2021/08/23 15:54:59;;;;;;;25.30;21.40;;;28.30;49.80;;;;;;4303426;61;21061;-33
2021/08/23 16:00:00;;;;;;;24.77;22.08;;;28.20;49.80;;;;;;4299702;61;21068;-35
2021/08/23 16:05:01;;;;;;;24.63;21.17;;;28.20;49.70;;;;;;4297352;60;21114;-30
2021/08/23 16:10:08;;;;;;;26.17;21.02;;;28.20;49.70;;;;;;4301927;60;21077;-26
2021/08/23 16:15:11;;;;;;;26.80;22.15;;;28.20;49.70;;;;;;4300038;60;21646;-33
2021/08/23 16:20:13;;;;;;;26.48;22.62;;;28.20;49.70;;;;;;4317876;60;21049;-25
2021/08/23 16:25:14;;;;;;;25.33;21.95;;;28.20;49.80;;;;;;4324579;60;21086;-29
2021/08/23 16:30:15;;;;;;;23.55;21.02;;;28.20;49.80;;;;;;4325929;61;21584;-32
2021/08/23 16:35:16;;;;;;;25.52;21.85;;;28.20;49.80;;;;;;4307437;61;21132;-29
2021/08/23 16:40:17;;;;;;;25.50;21.77;;;28.20;49.80;;;;;;4317082;61;21193;-32
2021/08/23 16:45:18;;;;;;;26.37;21.50;;;28.20;49.80;;;;;;4296768;61;21052;-33
2021/08/23 16:50:20;;;;;;;25.15;21.45;;;28.10;49.70;;;;;;4296243;60;21061;-27
2021/08/23 16:55:21;;;;;;;23.83;20.60;;;28.20;49.90;;;;;;4296617;60;21558;-34
2021/08/23 17:00:22;;;;;;;22.77;20.23;;;28.10;49.80;;;;;;4296227;61;21061;-34
2021/08/23 17:05:23;;;;;;;23.30;20.77;;;28.10;49.70;;;;;;4295810;65;21065;-30
2021/08/23 17:10:24;;;;;;;22.75;20.35;;;28.10;50.30;;;;;;4295852;61;21089;-33
2021/08/23 17:15:25;;;;;;;23.62;20.15;;;28.10;49.70;;;;;;4296563;60;21126;-34
2021/08/23 17:20:26;;;;;;;22.10;19.65;;;28.10;49.80;;;;;;4317672;61;21068;-32
2021/08/23 17:25:27;;;;;;;23.42;20.25;;;28.10;49.80;;;;;;4304511;61;21068;-31
2021/08/23 17:30:28;;;;;;;21.75;19.45;;;28.10;49.90;;;;;;4309864;61;21550;-32
2021/08/23 17:35:29;;;;;;;20.85;18.50;;;28.10;49.80;;;;;;4304804;60;21064;-29
2021/08/23 17:40:30;;;;;;;20.85;18.75;;;28.10;49.80;;;;;;4296306;61;21586;-31
2021/08/23 17:45:31;;;;;;;22.23;18.83;;;28.10;49.80;;;;;;4316115;60;21104;-29
2021/08/23 17:50:32;;;;;;;21.80;18.15;;;28.10;49.80;;;;;;4303716;61;21623;-29
2021/08/23 17:55:33;;;;;;;20.12;18.02;;;28.10;49.90;;;;;;4302515;60;21114;-30
2021/08/23 18:00:34;;;;;;;21.70;18.60;;;28.10;49.80;;;;;;4296237;61;21097;-28
2021/08/23 18:05:35;;;;;;;24.00;17.98;;;28.10;49.90;;;;;;4307891;61;21081;-28
2021/08/23 18:10:37;;;;;;;23.10;18.98;;;28.10;50.00;;;;;;4339556;61;21106;-26
2021/08/23 18:15:38;;;;;;;20.75;18.20;;;28.10;49.80;;;;;;4308910;61;21603;-31
2021/08/23 18:20:39;;;;;;;20.80;18.05;;;28.00;49.80;;;;;;4342815;61;21060;-32
2021/08/23 18:25:40;;;;;;;20.08;17.85;;;28.00;49.80;;;;;;4311257;61;21061;-31
2021/08/23 18:30:41;;;;;;;21.75;17.80;;;28.00;49.80;;;;;;4324037;60;21068;-31
2021/08/23 18:35:44;;;;;;;19.08;16.87;;;28.00;49.80;;;;;;4295414;65;21086;-30
2021/08/23 18:40:44;;;;;;;20.10;17.80;;;28.00;49.90;;;;;;4311187;61;21439;-28
2021/08/23 18:45:45;;;;;;;19.02;17.02;;;28.00;49.80;;;;;;4313166;61;21101;-31
2021/08/23 18:50:46;;;;;;;21.65;17.45;;;28.00;49.80;;;;;;4309832;61;21105;-30
2021/08/23 18:55:47;;;;;;;19.00;16.75;;;28.00;49.90;;;;;;4296227;65;21084;-31
2021/08/23 19:00:52;;;;;;;18.08;16.17;;;28.00;49.80;;;;;;4304304;61;21056;-30
2021/08/23 19:05:54;;;;;;;18.58;16.70;;;28.00;49.80;;;;;;4298653;61;21155;-30
2021/08/23 19:10:57;;;;;;;18.80;16.75;;;28.00;49.80;;;;;;4318437;60;21112;-30
2021/08/23 19:16:02;;;;;;;17.92;15.73;;;28.00;49.80;;;;;;4304481;61;21589;-26
2021/08/23 19:21:03;;;;;;;17.45;15.55;;;28.00;49.80;;;;;;4343455;60;22367;-31
2021/08/23 19:26:03;;;;;;;18.08;15.65;;;28.00;49.90;;;;;;4300939;61;21558;-32
2021/08/23 19:31:04;;;;;;;17.80;15.38;;;28.00;49.90;;;;;;4295627;65;21061;-31
2021/08/23 19:36:09;;;;;;;16.65;14.87;;;28.00;49.90;;;;;;4301331;61;21057;-29
2021/08/23 19:41:12;;;;;;;16.60;14.90;;;28.00;49.90;;;;;;4297879;60;21077;-28
2021/08/23 19:46:16;;;;;;;16.92;15.23;;;28.00;49.80;;;;;;4306910;60;21065;-26
2021/08/23 19:51:19;;;;;;;16.92;15.23;;;27.90;49.80;;;;;;4311582;60;21080;-30
2021/08/23 19:56:20;;;;;;;16.02;14.35;;;28.00;49.90;;;;;;4311939;61;21691;-21
2021/08/23 20:01:20;;;;;;;17.25;15.45;;;28.00;49.90;;;;;;4310633;61;21076;-32
2021/08/23 20:06:21;;;;;;;16.45;14.75;;;28.00;49.80;;;;;;4295672;65;21124;-31
2021/08/23 20:11:22;;;;;;;15.80;14.18;;;28.00;49.90;;;;;;4297138;61;21092;-31
2021/08/23 20:16:23;;;;;;;17.95;14.63;;;28.00;49.80;;;;;;4306109;61;21072;-32
2021/08/23 20:21:24;;;;;;;15.82;14.23;;;28.00;49.90;;;;;;4296218;65;21172;-29
2021/08/23 20:26:25;;;;;;;16.35;14.50;;;28.00;49.80;;;;;;4295850;65;21145;-30
2021/08/23 20:31:26;;;;;;;14.98;13.45;;;27.90;49.80;;;;;;4295642;60;21121;-31
2021/08/23 20:43:26;;;;;;;15.13;13.57;;;28.00;49.90;;;;;;4308512;60;21193;-30
2021/08/23 20:48:28;;;;;;;14.50;13.07;;;27.90;49.80;;;;;;4302173;60;21109;-27
2021/08/23 20:53:31;;;;;;;15.45;13.80;;;27.90;49.80;;;;;;4296286;65;21546;-33
2021/08/23 20:58:32;;;;;;;14.77;13.18;;;27.90;49.80;;;;;;4319134;60;21129;-32
2021/08/23 21:03:34;;;;;;;14.75;13.18;;;27.90;49.80;;;;;;4298561;60;21052;-32
2021/08/23 21:08:35;;;;;;;14.95;13.45;;;27.90;49.80;;;;;;4303352;60;21261;-31
2021/08/23 21:13:36;;;;;;;13.90;12.50;;;27.90;49.80;;;;;;4312534;61;21120;-31
2021/08/23 21:18:37;;;;;;;14.35;12.85;;;27.90;49.90;;;;;;4303789;61;21108;-27
2021/08/23 21:23:38;;;;;;;14.27;12.23;;;27.90;49.90;;;;;;4296220;65;21064;-33
2021/08/23 21:28:39;;;;;;;13.82;12.48;;;27.90;49.80;;;;;;4319005;60;21140;-29
2021/08/23 21:33:43;;;;;;;13.52;12.13;;;27.90;49.80;;;;;;4302332;61;21084;-31
2021/08/23 21:38:43;;;;;;;12.95;11.68;;;27.90;49.80;;;;;;4305339;61;21073;-27
2021/08/23 21:43:44;;;;;;;14.07;12.37;;;27.90;49.80;;;;;;4352316;61;21085;-32
2021/08/23 21:48:45;;;;;;;13.02;11.63;;;27.90;49.80;;;;;;4302608;61;21651;-33
2021/08/23 21:53:46;;;;;;;13.30;11.90;;;27.90;49.80;;;;;;4315962;61;21117;-26
2021/08/23 21:58:47;;;;;;;12.23;11.02;;;27.90;49.80;;;;;;4319198;60;21061;-34
2021/08/23 22:03:48;;;;;;;13.07;11.77;;;27.90;49.80;;;;;;4308384;61;21060;-30
2021/08/23 22:08:49;;;;;;;11.85;10.70;;;27.90;49.80;;;;;;4312397;61;21080;-30
2021/08/23 22:13:49;;;;;;;12.13;10.95;;;27.90;49.80;;;;;;4296985;61;21630;-31
2021/08/23 22:18:50;;;;;;;11.70;10.52;;;27.90;50.50;;;;;;4299879;61;21092;-32
2021/08/23 22:23:51;;;;;;;11.27;10.15;;;27.90;49.90;;;;;;4318754;61;21091;-30
2021/08/23 22:28:53;;;;;;;11.65;10.45;;;27.90;49.80;;;;;;4298592;61;22382;-30
2021/08/23 22:33:54;;;;;;;12.30;11.05;;;27.90;49.80;;;;;;4339508;60;21061;-33
2021/08/23 22:38:56;;;;;;;12.18;10.98;;;27.90;49.80;;;;;;4298693;61;21121;-31
2021/08/23 22:43:57;;;;;;;11.85;10.65;;;27.90;49.80;;;;;;4295773;65;21125;-31
2021/08/23 22:48:58;;;;;;;11.60;10.43;;;27.90;49.90;;;;;;4317039;61;21122;-31
2021/08/23 22:54:02;;;;;;;11.00;9.93;;;27.90;49.80;;;;;;4296151;65;21140;-28
2021/08/23 22:59:03;;;;;;;11.80;10.70;;;27.90;49.80;;;;;;4297652;61;21555;-30
2021/08/23 23:04:04;;;;;;;11.85;10.68;;;27.90;49.80;;;;;;4303022;61;21044;-27
2021/08/23 23:09:06;;;;;;;11.48;10.38;;;27.90;49.80;;;;;;4296408;61;21068;-30
2021/08/23 23:14:06;;;;;;;12.18;10.98;;;27.90;49.80;;;;;;4316849;61;21513;-30
2021/08/23 23:19:08;;;;;;;11.48;10.38;;;27.90;49.80;;;;;;4303274;61;21072;-26
2021/08/23 23:24:09;;;;;;;11.02;9.88;;;27.90;49.80;;;;;;4296439;60;21098;-28
2021/08/23 23:29:09;;;;;;;11.52;10.43;;;27.90;49.80;;;;;;4309464;61;21527;-28
2021/08/23 23:34:10;;;;;;;10.85;9.75;;;27.90;49.80;;;;;;4304245;61;21069;-27
2021/08/23 23:39:11;;;;;;;10.35;9.35;;;27.90;49.70;;;;;;4315393;61;21069;-22
2021/08/23 23:44:15;;;;;;;10.25;9.23;;;27.90;49.80;;;;;;4296008;64;21157;-24
2021/08/23 23:49:16;;;;;;;10.52;9.52;;;27.90;49.80;;;;;;4305204;61;21634;-27
2021/08/23 23:54:16;;;;;;;9.55;8.65;;;27.90;49.80;;;;;;4313140;61;21121;-32
2021/08/23 23:59:17;;;;;;;10.10;9.10;;;27.90;49.70;;;;;;4333861;61;21077;-32
